sensor_id;sensor_type;location;lat;lon;timestamp;temperature;humidity
51815;DHT22;37874;53.158;6.766;2023-05-07T00:02:02;21.00;56.40
51815;DHT22;37874;53.158;6.766;2023-05-07T00:04:29;20.50;56.10
51815;DHT22;37874;53.158;6.766;2023-05-07T00:07:01;21.00;56.30
51815;DHT22;37874;53.158;6.766;2023-05-07T00:09:26;21.00;56.40
51815;DHT22;37874;53.158;6.766;2023-05-07T00:11:52;21.00;56.30
51815;DHT22;37874;53.158;6.766;2023-05-07T00:14:18;21.00;56.30
51815;DHT22;37874;53.158;6.766;2023-05-07T00:16:43;21.00;56.30
51815;DHT22;37874;53.158;6.766;2023-05-07T00:19:09;21.00;56.30
51815;DHT22;37874;53.158;6.766;2023-05-07T00:21:35;21.00;56.30
51815;DHT22;37874;53.158;6.766;2023-05-07T00:24:00;21.00;56.30
51815;DHT22;37874;53.158;6.766;2023-05-07T00:26:26;21.00;56.40
51815;DHT22;37874;53.158;6.766;2023-05-07T00:28:51;20.80;56.20
51815;DHT22;37874;53.158;6.766;2023-05-07T00:31:17;21.10;56.30
51815;DHT22;37874;53.158;6.766;2023-05-07T00:33:42;21.00;56.40
51815;DHT22;37874;53.158;6.766;2023-05-07T00:36:08;21.00;56.30
51815;DHT22;37874;53.158;6.766;2023-05-07T00:38:34;21.00;56.40
51815;DHT22;37874;53.158;6.766;2023-05-07T00:40:59;21.00;56.30
51815;DHT22;37874;53.158;6.766;2023-05-07T00:43:25;21.00;56.30
51815;DHT22;37874;53.158;6.766;2023-05-07T00:45:51;21.00;56.30
51815;DHT22;37874;53.158;6.766;2023-05-07T00:48:17;21.10;56.40
51815;DHT22;37874;53.158;6.766;2023-05-07T00:50:43;21.00;56.30
51815;DHT22;37874;53.158;6.766;2023-05-07T00:53:09;21.00;56.30
51815;DHT22;37874;53.158;6.766;2023-05-07T00:55:35;20.90;56.30
51815;DHT22;37874;53.158;6.766;2023-05-07T00:58:02;20.90;56.30
51815;DHT22;37874;53.158;6.766;2023-05-07T01:00:28;21.00;56.40
51815;DHT22;37874;53.158;6.766;2023-05-07T01:02:53;20.90;56.30
51815;DHT22;37874;53.158;6.766;2023-05-07T01:05:20;20.90;56.30
51815;DHT22;37874;53.158;6.766;2023-05-07T01:07:46;20.90;56.30
51815;DHT22;37874;53.158;6.766;2023-05-07T01:10:12;20.90;56.30
51815;DHT22;37874;53.158;6.766;2023-05-07T01:12:39;20.90;56.30
51815;DHT22;37874;53.158;6.766;2023-05-07T01:15:06;20.90;56.30
51815;DHT22;37874;53.158;6.766;2023-05-07T01:17:38;20.90;56.30
51815;DHT22;37874;53.158;6.766;2023-05-07T01:20:05;20.90;56.20
51815;DHT22;37874;53.158;6.766;2023-05-07T01:22:35;20.90;56.20
51815;DHT22;37874;53.158;6.766;2023-05-07T01:25:05;20.90;56.20
51815;DHT22;37874;53.158;6.766;2023-05-07T01:27:31;20.90;56.20
51815;DHT22;37874;53.158;6.766;2023-05-07T01:29:59;20.90;56.20
51815;DHT22;37874;53.158;6.766;2023-05-07T01:32:44;20.90;56.20
51815;DHT22;37874;53.158;6.766;2023-05-07T01:35:13;20.90;56.20
51815;DHT22;37874;53.158;6.766;2023-05-07T01:37:41;20.90;56.20
51815;DHT22;37874;53.158;6.766;2023-05-07T01:40:08;20.90;56.20
51815;DHT22;37874;53.158;6.766;2023-05-07T01:42:34;20.90;56.20
51815;DHT22;37874;53.158;6.766;2023-05-07T01:44:59;20.80;56.20
51815;DHT22;37874;53.158;6.766;2023-05-07T01:47:25;20.90;56.20
51815;DHT22;37874;53.158;6.766;2023-05-07T01:49:52;20.90;56.20
51815;DHT22;37874;53.158;6.766;2023-05-07T01:52:17;20.80;56.10
51815;DHT22;37874;53.158;6.766;2023-05-07T01:54:43;20.90;56.10
51815;DHT22;37874;53.158;6.766;2023-05-07T01:57:09;20.90;56.20
51815;DHT22;37874;53.158;6.766;2023-05-07T01:59:34;20.90;56.10
51815;DHT22;37874;53.158;6.766;2023-05-07T02:02:00;20.90;56.10
51815;DHT22;37874;53.158;6.766;2023-05-07T02:04:26;20.90;56.10
51815;DHT22;37874;53.158;6.766;2023-05-07T02:06:51;20.90;56.10
51815;DHT22;37874;53.158;6.766;2023-05-07T02:09:18;20.80;56.10
51815;DHT22;37874;53.158;6.766;2023-05-07T02:11:44;20.80;56.10
51815;DHT22;37874;53.158;6.766;2023-05-07T02:14:09;20.80;56.10
51815;DHT22;37874;53.158;6.766;2023-05-07T02:16:35;20.80;56.10
51815;DHT22;37874;53.158;6.766;2023-05-07T02:19:01;20.70;56.10
51815;DHT22;37874;53.158;6.766;2023-05-07T02:21:27;20.90;56.10
51815;DHT22;37874;53.158;6.766;2023-05-07T02:23:53;20.80;56.10
51815;DHT22;37874;53.158;6.766;2023-05-07T02:26:19;20.80;56.10
51815;DHT22;37874;53.158;6.766;2023-05-07T02:28:45;20.90;56.20
51815;DHT22;37874;53.158;6.766;2023-05-07T02:31:10;20.80;56.10
51815;DHT22;37874;53.158;6.766;2023-05-07T02:33:36;20.80;56.10
51815;DHT22;37874;53.158;6.766;2023-05-07T02:36:09;20.80;56.10
51815;DHT22;37874;53.158;6.766;2023-05-07T02:38:35;20.80;56.00
51815;DHT22;37874;53.158;6.766;2023-05-07T02:41:00;20.80;56.10
51815;DHT22;37874;53.158;6.766;2023-05-07T02:43:26;20.80;56.00
51815;DHT22;37874;53.158;6.766;2023-05-07T02:46:08;20.80;56.10
51815;DHT22;37874;53.158;6.766;2023-05-07T02:48:34;21.20;56.30
51815;DHT22;37874;53.158;6.766;2023-05-07T02:51:00;20.80;56.10
51815;DHT22;37874;53.158;6.766;2023-05-07T02:53:26;20.80;56.10
51815;DHT22;37874;53.158;6.766;2023-05-07T02:55:56;20.80;56.10
51815;DHT22;37874;53.158;6.766;2023-05-07T02:58:22;20.80;56.10
51815;DHT22;37874;53.158;6.766;2023-05-07T03:00:47;20.80;56.10
51815;DHT22;37874;53.158;6.766;2023-05-07T03:03:13;20.80;56.00
51815;DHT22;37874;53.158;6.766;2023-05-07T03:05:39;20.70;56.00
51815;DHT22;37874;53.158;6.766;2023-05-07T03:08:05;20.80;56.00
51815;DHT22;37874;53.158;6.766;2023-05-07T03:10:31;20.80;56.10
51815;DHT22;37874;53.158;6.766;2023-05-07T03:12:56;20.80;56.00
51815;DHT22;37874;53.158;6.766;2023-05-07T03:15:22;20.80;56.00
51815;DHT22;37874;53.158;6.766;2023-05-07T03:17:48;20.70;56.00
51815;DHT22;37874;53.158;6.766;2023-05-07T03:20:14;20.80;56.10
51815;DHT22;37874;53.158;6.766;2023-05-07T03:22:39;20.80;56.10
51815;DHT22;37874;53.158;6.766;2023-05-07T03:25:06;20.70;56.00
51815;DHT22;37874;53.158;6.766;2023-05-07T03:27:31;20.70;56.00
51815;DHT22;37874;53.158;6.766;2023-05-07T03:29:57;20.70;56.00
51815;DHT22;37874;53.158;6.766;2023-05-07T03:32:23;20.80;56.00
51815;DHT22;37874;53.158;6.766;2023-05-07T03:34:48;20.80;56.00
51815;DHT22;37874;53.158;6.766;2023-05-07T03:37:14;20.80;55.90
51815;DHT22;37874;53.158;6.766;2023-05-07T03:39:39;20.70;55.90
51815;DHT22;37874;53.158;6.766;2023-05-07T03:42:05;20.70;55.90
51815;DHT22;37874;53.158;6.766;2023-05-07T03:44:31;20.70;56.00
51815;DHT22;37874;53.158;6.766;2023-05-07T03:46:56;20.70;55.90
51815;DHT22;37874;53.158;6.766;2023-05-07T03:49:22;20.70;55.90
51815;DHT22;37874;53.158;6.766;2023-05-07T03:51:47;20.70;55.80
51815;DHT22;37874;53.158;6.766;2023-05-07T03:54:13;20.80;55.90
51815;DHT22;37874;53.158;6.766;2023-05-07T03:56:39;20.70;55.90
51815;DHT22;37874;53.158;6.766;2023-05-07T03:59:04;20.70;56.00
51815;DHT22;37874;53.158;6.766;2023-05-07T04:01:30;20.70;56.00
51815;DHT22;37874;53.158;6.766;2023-05-07T04:03:56;20.70;56.00
51815;DHT22;37874;53.158;6.766;2023-05-07T04:06:21;20.70;55.90
51815;DHT22;37874;53.158;6.766;2023-05-07T04:08:47;20.70;56.50
51815;DHT22;37874;53.158;6.766;2023-05-07T04:11:13;20.70;55.90
51815;DHT22;37874;53.158;6.766;2023-05-07T04:13:38;20.70;55.90
51815;DHT22;37874;53.158;6.766;2023-05-07T04:16:05;20.70;55.90
51815;DHT22;37874;53.158;6.766;2023-05-07T04:18:31;20.70;55.90
51815;DHT22;37874;53.158;6.766;2023-05-07T04:20:56;20.70;55.90
51815;DHT22;37874;53.158;6.766;2023-05-07T04:23:22;20.70;55.80
51815;DHT22;37874;53.158;6.766;2023-05-07T04:25:47;20.70;55.80
51815;DHT22;37874;53.158;6.766;2023-05-07T04:28:13;20.70;55.80
51815;DHT22;37874;53.158;6.766;2023-05-07T04:30:39;20.70;55.80
51815;DHT22;37874;53.158;6.766;2023-05-07T04:33:06;20.70;55.80
51815;DHT22;37874;53.158;6.766;2023-05-07T04:35:32;20.60;55.70
51815;DHT22;37874;53.158;6.766;2023-05-07T04:37:57;20.60;55.80
51815;DHT22;37874;53.158;6.766;2023-05-07T04:40:23;20.60;55.70
51815;DHT22;37874;53.158;6.766;2023-05-07T04:42:49;20.60;55.80
51815;DHT22;37874;53.158;6.766;2023-05-07T04:45:14;20.70;55.80
51815;DHT22;37874;53.158;6.766;2023-05-07T04:47:40;20.60;55.80
51815;DHT22;37874;53.158;6.766;2023-05-07T04:50:09;20.60;55.70
51815;DHT22;37874;53.158;6.766;2023-05-07T04:52:35;20.70;55.80
51815;DHT22;37874;53.158;6.766;2023-05-07T04:55:00;20.70;55.70
51815;DHT22;37874;53.158;6.766;2023-05-07T04:57:26;20.60;55.70
51815;DHT22;37874;53.158;6.766;2023-05-07T04:59:53;20.60;55.70
51815;DHT22;37874;53.158;6.766;2023-05-07T05:02:19;20.60;55.70
51815;DHT22;37874;53.158;6.766;2023-05-07T05:04:44;20.80;55.90
51815;DHT22;37874;53.158;6.766;2023-05-07T05:07:10;20.60;55.70
51815;DHT22;37874;53.158;6.766;2023-05-07T05:09:36;20.60;55.70
51815;DHT22;37874;53.158;6.766;2023-05-07T05:12:01;20.60;55.60
51815;DHT22;37874;53.158;6.766;2023-05-07T05:14:27;20.60;55.60
51815;DHT22;37874;53.158;6.766;2023-05-07T05:16:52;20.60;55.60
51815;DHT22;37874;53.158;6.766;2023-05-07T05:19:18;20.60;55.60
51815;DHT22;37874;53.158;6.766;2023-05-07T05:21:44;20.60;55.50
51815;DHT22;37874;53.158;6.766;2023-05-07T05:24:09;20.60;55.50
51815;DHT22;37874;53.158;6.766;2023-05-07T05:26:35;20.60;55.50
51815;DHT22;37874;53.158;6.766;2023-05-07T05:29:01;20.70;55.50
51815;DHT22;37874;53.158;6.766;2023-05-07T05:31:26;20.70;55.50
51815;DHT22;37874;53.158;6.766;2023-05-07T05:33:52;20.70;55.50
51815;DHT22;37874;53.158;6.766;2023-05-07T05:36:17;20.70;55.40
51815;DHT22;37874;53.158;6.766;2023-05-07T05:38:43;20.70;55.50
51815;DHT22;37874;53.158;6.766;2023-05-07T05:41:09;20.70;55.30
51815;DHT22;37874;53.158;6.766;2023-05-07T05:43:35;20.70;55.40
51815;DHT22;37874;53.158;6.766;2023-05-07T05:46:01;20.70;55.40
51815;DHT22;37874;53.158;6.766;2023-05-07T05:48:28;20.70;55.40
51815;DHT22;37874;53.158;6.766;2023-05-07T05:50:54;20.70;55.40
51815;DHT22;37874;53.158;6.766;2023-05-07T05:53:19;20.70;55.30
51815;DHT22;37874;53.158;6.766;2023-05-07T05:55:45;20.70;55.30
51815;DHT22;37874;53.158;6.766;2023-05-07T05:58:11;20.80;55.30
51815;DHT22;37874;53.158;6.766;2023-05-07T06:00:36;20.60;55.20
51815;DHT22;37874;53.158;6.766;2023-05-07T06:03:02;20.70;55.20
51815;DHT22;37874;53.158;6.766;2023-05-07T06:05:27;20.70;55.20
51815;DHT22;37874;53.158;6.766;2023-05-07T06:07:53;20.70;55.30
51815;DHT22;37874;53.158;6.766;2023-05-07T06:10:18;20.70;55.20
51815;DHT22;37874;53.158;6.766;2023-05-07T06:12:44;20.70;55.10
51815;DHT22;37874;53.158;6.766;2023-05-07T06:15:10;20.70;55.00
51815;DHT22;37874;53.158;6.766;2023-05-07T06:17:36;20.70;55.00
51815;DHT22;37874;53.158;6.766;2023-05-07T06:20:01;20.70;55.00
51815;DHT22;37874;53.158;6.766;2023-05-07T06:22:27;20.70;55.10
51815;DHT22;37874;53.158;6.766;2023-05-07T06:24:53;20.70;55.10
51815;DHT22;37874;53.158;6.766;2023-05-07T06:27:18;20.70;55.00
51815;DHT22;37874;53.158;6.766;2023-05-07T06:29:44;20.70;55.00
51815;DHT22;37874;53.158;6.766;2023-05-07T06:32:13;20.90;55.10
51815;DHT22;37874;53.158;6.766;2023-05-07T06:34:39;20.80;55.00
51815;DHT22;37874;53.158;6.766;2023-05-07T06:37:06;20.80;55.00
51815;DHT22;37874;53.158;6.766;2023-05-07T06:39:32;20.80;55.00
51815;DHT22;37874;53.158;6.766;2023-05-07T06:41:59;20.70;54.90
51815;DHT22;37874;53.158;6.766;2023-05-07T06:44:25;20.70;54.90
51815;DHT22;37874;53.158;6.766;2023-05-07T06:46:50;20.70;54.80
51815;DHT22;37874;53.158;6.766;2023-05-07T06:49:16;20.80;54.90
51815;DHT22;37874;53.158;6.766;2023-05-07T06:51:41;20.80;54.90
51815;DHT22;37874;53.158;6.766;2023-05-07T06:54:07;20.80;54.80
51815;DHT22;37874;53.158;6.766;2023-05-07T06:56:33;20.20;54.50
51815;DHT22;37874;53.158;6.766;2023-05-07T06:59:01;20.80;54.80
51815;DHT22;37874;53.158;6.766;2023-05-07T07:01:26;21.00;54.90
51815;DHT22;37874;53.158;6.766;2023-05-07T07:03:52;20.80;54.70
51815;DHT22;37874;53.158;6.766;2023-05-07T07:06:18;20.80;54.60
51815;DHT22;37874;53.158;6.766;2023-05-07T07:08:43;20.90;54.60
51815;DHT22;37874;53.158;6.766;2023-05-07T07:11:10;20.90;54.60
51815;DHT22;37874;53.158;6.766;2023-05-07T07:13:35;21.40;54.80
51815;DHT22;37874;53.158;6.766;2023-05-07T07:16:01;20.90;54.50
51815;DHT22;37874;53.158;6.766;2023-05-07T07:18:27;20.90;54.50
51815;DHT22;37874;53.158;6.766;2023-05-07T07:20:52;20.90;54.50
51815;DHT22;37874;53.158;6.766;2023-05-07T07:23:18;20.90;54.30
51815;DHT22;37874;53.158;6.766;2023-05-07T07:25:44;21.00;54.30
51815;DHT22;37874;53.158;6.766;2023-05-07T07:28:10;20.90;54.30
51815;DHT22;37874;53.158;6.766;2023-05-07T07:30:36;21.00;54.30
51815;DHT22;37874;53.158;6.766;2023-05-07T07:33:02;20.90;54.20
51815;DHT22;37874;53.158;6.766;2023-05-07T07:35:32;20.70;54.10
51815;DHT22;37874;53.158;6.766;2023-05-07T07:37:57;21.00;54.30
51815;DHT22;37874;53.158;6.766;2023-05-07T07:40:23;21.00;54.10
51815;DHT22;37874;53.158;6.766;2023-05-07T07:42:50;21.00;54.00
51815;DHT22;37874;53.158;6.766;2023-05-07T09:43:11;21.80;52.50
51815;DHT22;37874;53.158;6.766;2023-05-07T09:45:38;21.80;52.50
51815;DHT22;37874;53.158;6.766;2023-05-07T09:48:05;21.80;52.50
51815;DHT22;37874;53.158;6.766;2023-05-07T09:50:36;21.80;52.40
51815;DHT22;37874;53.158;6.766;2023-05-07T09:53:06;21.80;52.50
51815;DHT22;37874;53.158;6.766;2023-05-07T09:55:32;21.80;52.40
51815;DHT22;37874;53.158;6.766;2023-05-07T09:57:58;21.90;52.50
51815;DHT22;37874;53.158;6.766;2023-05-07T10:00:25;21.90;52.60
51815;DHT22;37874;53.158;6.766;2023-05-07T10:02:52;21.90;52.50
51815;DHT22;37874;53.158;6.766;2023-05-07T10:05:19;22.00;52.30
51815;DHT22;37874;53.158;6.766;2023-05-07T10:07:48;22.00;52.30
51815;DHT22;37874;53.158;6.766;2023-05-07T10:10:15;22.00;52.10
51815;DHT22;37874;53.158;6.766;2023-05-07T10:12:43;22.10;52.10
51815;DHT22;37874;53.158;6.766;2023-05-07T10:15:12;22.10;52.10
51815;DHT22;37874;53.158;6.766;2023-05-07T10:17:41;22.10;52.10
51815;DHT22;37874;53.158;6.766;2023-05-07T10:20:07;22.10;52.10
51815;DHT22;37874;53.158;6.766;2023-05-07T10:22:45;22.10;52.00
51815;DHT22;37874;53.158;6.766;2023-05-07T10:25:25;22.10;52.00
51815;DHT22;37874;53.158;6.766;2023-05-07T10:27:52;22.10;52.00
51815;DHT22;37874;53.158;6.766;2023-05-07T10:33:10;22.10;52.00
51815;DHT22;37874;53.158;6.766;2023-05-07T10:35:43;22.10;52.10
51815;DHT22;37874;53.158;6.766;2023-05-07T10:38:09;22.10;52.00
51815;DHT22;37874;53.158;6.766;2023-05-07T10:40:35;22.10;52.10
51815;DHT22;37874;53.158;6.766;2023-05-07T10:43:03;22.10;52.00
51815;DHT22;37874;53.158;6.766;2023-05-07T10:45:32;22.10;52.10
51815;DHT22;37874;53.158;6.766;2023-05-07T10:48:14;22.20;52.10
51815;DHT22;37874;53.158;6.766;2023-05-07T10:50:44;22.10;52.10
51815;DHT22;37874;53.158;6.766;2023-05-07T10:58:34;22.20;52.20
51815;DHT22;37874;53.158;6.766;2023-05-07T11:01:02;22.20;52.80
51815;DHT22;37874;53.158;6.766;2023-05-07T11:03:29;22.20;52.20
51815;DHT22;37874;53.158;6.766;2023-05-07T11:06:13;22.30;52.20
51815;DHT22;37874;53.158;6.766;2023-05-07T11:11:17;22.20;52.10
51815;DHT22;37874;53.158;6.766;2023-05-07T11:13:45;22.30;52.10
51815;DHT22;37874;53.158;6.766;2023-05-07T11:16:21;22.30;52.00
51815;DHT22;37874;53.158;6.766;2023-05-07T11:18:52;22.30;52.60
51815;DHT22;37874;53.158;6.766;2023-05-07T11:21:38;22.40;52.10
51815;DHT22;37874;53.158;6.766;2023-05-07T11:24:05;22.30;52.00
51815;DHT22;37874;53.158;6.766;2023-05-07T11:26:50;22.30;52.00
51815;DHT22;37874;53.158;6.766;2023-05-07T11:31:41;22.40;52.10
51815;DHT22;37874;53.158;6.766;2023-05-07T11:34:08;22.50;52.20
51815;DHT22;37874;53.158;6.766;2023-05-07T11:36:34;22.40;52.10
51815;DHT22;37874;53.158;6.766;2023-05-07T11:39:00;22.40;52.10
51815;DHT22;37874;53.158;6.766;2023-05-07T11:41:36;22.40;51.90
51815;DHT22;37874;53.158;6.766;2023-05-07T11:44:02;22.40;51.90
51815;DHT22;37874;53.158;6.766;2023-05-07T11:46:28;22.50;51.90
51815;DHT22;37874;53.158;6.766;2023-05-07T11:48:54;22.50;51.80
51815;DHT22;37874;53.158;6.766;2023-05-07T11:51:22;22.50;51.80
51815;DHT22;37874;53.158;6.766;2023-05-07T11:53:48;22.50;51.70
51815;DHT22;37874;53.158;6.766;2023-05-07T11:56:16;22.60;51.70
51815;DHT22;37874;53.158;6.766;2023-05-07T11:58:44;22.60;51.60
51815;DHT22;37874;53.158;6.766;2023-05-07T12:01:12;22.70;51.50
51815;DHT22;37874;53.158;6.766;2023-05-07T12:03:40;22.70;51.40
51815;DHT22;37874;53.158;6.766;2023-05-07T12:06:11;22.70;51.30
51815;DHT22;37874;53.158;6.766;2023-05-07T12:08:39;22.80;51.40
51815;DHT22;37874;53.158;6.766;2023-05-07T12:11:07;22.80;51.30
51815;DHT22;37874;53.158;6.766;2023-05-07T12:13:35;22.80;51.20
51815;DHT22;37874;53.158;6.766;2023-05-07T12:16:01;22.80;51.20
51815;DHT22;37874;53.158;6.766;2023-05-07T12:18:28;22.90;51.10
51815;DHT22;37874;53.158;6.766;2023-05-07T12:20:55;22.90;51.20
51815;DHT22;37874;53.158;6.766;2023-05-07T12:23:22;22.90;51.10
51815;DHT22;37874;53.158;6.766;2023-05-07T12:25:47;22.90;51.10
51815;DHT22;37874;53.158;6.766;2023-05-07T12:28:15;23.00;51.00
51815;DHT22;37874;53.158;6.766;2023-05-07T12:30:42;23.10;51.00
51815;DHT22;37874;53.158;6.766;2023-05-07T12:33:08;23.10;50.80
51815;DHT22;37874;53.158;6.766;2023-05-07T12:35:39;23.20;50.70
51815;DHT22;37874;53.158;6.766;2023-05-07T12:38:13;23.20;50.60
51815;DHT22;37874;53.158;6.766;2023-05-07T12:40:47;23.30;50.50
51815;DHT22;37874;53.158;6.766;2023-05-07T12:43:27;23.30;50.40
51815;DHT22;37874;53.158;6.766;2023-05-07T12:45:57;23.40;50.20
51815;DHT22;37874;53.158;6.766;2023-05-07T12:48:24;23.40;50.00
51815;DHT22;37874;53.158;6.766;2023-05-07T12:50:56;23.60;50.10
51815;DHT22;37874;53.158;6.766;2023-05-07T12:53:24;23.70;49.60
51815;DHT22;37874;53.158;6.766;2023-05-07T12:55:53;23.80;49.40
51815;DHT22;37874;53.158;6.766;2023-05-07T12:58:27;24.00;49.30
51815;DHT22;37874;53.158;6.766;2023-05-07T13:00:54;24.00;48.90
51815;DHT22;37874;53.158;6.766;2023-05-07T13:03:31;24.10;48.70
51815;DHT22;37874;53.158;6.766;2023-05-07T13:06:02;24.50;48.80
51815;DHT22;37874;53.158;6.766;2023-05-07T13:08:30;24.10;48.60
51815;DHT22;37874;53.158;6.766;2023-05-07T13:10:57;24.20;48.60
51815;DHT22;37874;53.158;6.766;2023-05-07T13:13:23;24.20;48.60
51815;DHT22;37874;53.158;6.766;2023-05-07T13:15:49;24.40;48.40
51815;DHT22;37874;53.158;6.766;2023-05-07T13:18:14;24.60;48.10
51815;DHT22;37874;53.158;6.766;2023-05-07T13:20:40;24.80;47.60
51815;DHT22;37874;53.158;6.766;2023-05-07T13:23:06;25.00;47.20
51815;DHT22;37874;53.158;6.766;2023-05-07T13:25:31;25.10;46.70
51815;DHT22;37874;53.158;6.766;2023-05-07T13:27:57;25.60;46.70
51815;DHT22;37874;53.158;6.766;2023-05-07T13:30:23;25.40;46.30
51815;DHT22;37874;53.158;6.766;2023-05-07T13:32:48;25.50;46.10
51815;DHT22;37874;53.158;6.766;2023-05-07T13:35:15;25.50;45.80
51815;DHT22;37874;53.158;6.766;2023-05-07T13:37:41;25.70;45.70
51815;DHT22;37874;53.158;6.766;2023-05-07T13:40:07;25.90;45.50
51815;DHT22;37874;53.158;6.766;2023-05-07T13:42:33;25.90;45.30
51815;DHT22;37874;53.158;6.766;2023-05-07T13:44:58;25.90;45.20
51815;DHT22;37874;53.158;6.766;2023-05-07T13:47:24;26.00;45.20
51815;DHT22;37874;53.158;6.766;2023-05-07T13:49:50;26.10;45.00
51815;DHT22;37874;53.158;6.766;2023-05-07T13:52:16;26.20;44.80
51815;DHT22;37874;53.158;6.766;2023-05-07T13:54:42;26.30;44.60
51815;DHT22;37874;53.158;6.766;2023-05-07T13:57:07;26.40;44.60
51815;DHT22;37874;53.158;6.766;2023-05-07T13:59:33;26.40;44.30
51815;DHT22;37874;53.158;6.766;2023-05-07T14:01:59;26.60;44.20
51815;DHT22;37874;53.158;6.766;2023-05-07T14:04:25;26.60;44.10
51815;DHT22;37874;53.158;6.766;2023-05-07T14:06:51;26.60;44.10
51815;DHT22;37874;53.158;6.766;2023-05-07T14:09:16;26.50;44.20
51815;DHT22;37874;53.158;6.766;2023-05-07T14:11:42;26.40;45.00
51815;DHT22;37874;53.158;6.766;2023-05-07T14:14:08;26.20;44.60
51815;DHT22;37874;53.158;6.766;2023-05-07T14:16:36;26.20;44.90
51815;DHT22;37874;53.158;6.766;2023-05-07T14:19:02;26.30;45.70
51815;DHT22;37874;53.158;6.766;2023-05-07T14:21:27;26.40;44.80
51815;DHT22;37874;53.158;6.766;2023-05-07T14:23:53;26.60;44.60
51815;DHT22;37874;53.158;6.766;2023-05-07T14:26:19;26.70;44.30
51815;DHT22;37874;53.158;6.766;2023-05-07T14:28:46;26.90;44.10
51815;DHT22;37874;53.158;6.766;2023-05-07T14:31:12;26.90;44.00
51815;DHT22;37874;53.158;6.766;2023-05-07T14:33:38;27.00;44.00
51815;DHT22;37874;53.158;6.766;2023-05-07T14:36:03;27.00;43.80
51815;DHT22;37874;53.158;6.766;2023-05-07T14:38:29;26.90;43.80
51815;DHT22;37874;53.158;6.766;2023-05-07T14:40:56;26.90;44.10
51815;DHT22;37874;53.158;6.766;2023-05-07T14:43:22;26.90;44.20
51815;DHT22;37874;53.158;6.766;2023-05-07T14:45:47;26.90;44.20
51815;DHT22;37874;53.158;6.766;2023-05-07T14:48:13;26.80;44.40
51815;DHT22;37874;53.158;6.766;2023-05-07T14:50:43;26.70;44.50
51815;DHT22;37874;53.158;6.766;2023-05-07T14:53:09;26.70;44.80
51815;DHT22;37874;53.158;6.766;2023-05-07T14:55:35;26.60;44.90
51815;DHT22;37874;53.158;6.766;2023-05-07T14:58:01;26.60;45.10
51815;DHT22;37874;53.158;6.766;2023-05-07T15:00:26;26.60;45.80
51815;DHT22;37874;53.158;6.766;2023-05-07T15:02:52;26.50;45.20
51815;DHT22;37874;53.158;6.766;2023-05-07T15:05:18;26.60;45.40
51815;DHT22;37874;53.158;6.766;2023-05-07T15:07:44;26.60;45.30
51815;DHT22;37874;53.158;6.766;2023-05-07T15:10:10;26.60;45.30
51815;DHT22;37874;53.158;6.766;2023-05-07T15:12:36;26.70;45.30
51815;DHT22;37874;53.158;6.766;2023-05-07T15:15:01;26.30;45.10
51815;DHT22;37874;53.158;6.766;2023-05-07T15:17:27;26.60;45.40
51815;DHT22;37874;53.158;6.766;2023-05-07T15:19:53;26.40;45.60
51815;DHT22;37874;53.158;6.766;2023-05-07T15:22:19;26.30;45.90
51815;DHT22;37874;53.158;6.766;2023-05-07T15:24:46;26.10;46.30
51815;DHT22;37874;53.158;6.766;2023-05-07T15:27:12;25.90;46.60
51815;DHT22;37874;53.158;6.766;2023-05-07T15:29:37;25.80;47.00
51815;DHT22;37874;53.158;6.766;2023-05-07T15:32:03;25.70;47.30
51815;DHT22;37874;53.158;6.766;2023-05-07T15:34:29;25.50;47.50
51815;DHT22;37874;53.158;6.766;2023-05-07T15:36:55;25.50;47.80
51815;DHT22;37874;53.158;6.766;2023-05-07T15:39:22;25.40;47.90
51815;DHT22;37874;53.158;6.766;2023-05-07T15:41:48;25.40;48.00
51815;DHT22;37874;53.158;6.766;2023-05-07T15:44:13;25.50;48.20
51815;DHT22;37874;53.158;6.766;2023-05-07T15:46:39;25.50;48.10
51815;DHT22;37874;53.158;6.766;2023-05-07T15:49:04;25.50;48.00
51815;DHT22;37874;53.158;6.766;2023-05-07T15:51:30;25.50;48.10
51815;DHT22;37874;53.158;6.766;2023-05-07T15:53:56;25.50;48.20
51815;DHT22;37874;53.158;6.766;2023-05-07T15:56:22;25.40;48.30
51815;DHT22;37874;53.158;6.766;2023-05-07T15:58:49;25.50;48.30
51815;DHT22;37874;53.158;6.766;2023-05-07T16:01:15;25.30;48.10
51815;DHT22;37874;53.158;6.766;2023-05-07T16:03:40;25.50;48.10
51815;DHT22;37874;53.158;6.766;2023-05-07T16:06:06;25.60;48.10
51815;DHT22;37874;53.158;6.766;2023-05-07T16:08:31;25.70;48.00
51815;DHT22;37874;53.158;6.766;2023-05-07T16:10:58;25.70;47.80
51815;DHT22;37874;53.158;6.766;2023-05-07T16:13:23;25.70;47.70
51815;DHT22;37874;53.158;6.766;2023-05-07T16:15:55;25.70;47.90
51815;DHT22;37874;53.158;6.766;2023-05-07T16:18:21;25.40;47.90
51815;DHT22;37874;53.158;6.766;2023-05-07T16:20:46;25.40;48.10
51815;DHT22;37874;53.158;6.766;2023-05-07T16:23:12;25.40;48.40
51815;DHT22;37874;53.158;6.766;2023-05-07T16:25:38;25.30;48.50
51815;DHT22;37874;53.158;6.766;2023-05-07T16:28:04;25.40;48.70
51815;DHT22;37874;53.158;6.766;2023-05-07T16:30:30;25.30;48.60
51815;DHT22;37874;53.158;6.766;2023-05-07T16:32:55;25.30;48.70
51815;DHT22;37874;53.158;6.766;2023-05-07T16:35:21;25.20;48.80
51815;DHT22;37874;53.158;6.766;2023-05-07T16:37:47;25.20;49.00
51815;DHT22;37874;53.158;6.766;2023-05-07T16:40:12;25.10;49.10
51815;DHT22;37874;53.158;6.766;2023-05-07T16:42:38;25.00;49.30
51815;DHT22;37874;53.158;6.766;2023-05-07T16:45:04;25.00;49.50
51815;DHT22;37874;53.158;6.766;2023-05-07T16:47:30;24.90;49.60
51815;DHT22;37874;53.158;6.766;2023-05-07T16:49:55;24.80;49.80
51815;DHT22;37874;53.158;6.766;2023-05-07T16:52:21;24.80;50.10
51815;DHT22;37874;53.158;6.766;2023-05-07T16:54:47;24.70;50.30
51815;DHT22;37874;53.158;6.766;2023-05-07T16:57:12;24.60;50.30
51815;DHT22;37874;53.158;6.766;2023-05-07T16:59:38;24.60;50.50
51815;DHT22;37874;53.158;6.766;2023-05-07T17:02:04;24.50;50.60
51815;DHT22;37874;53.158;6.766;2023-05-07T17:04:29;24.40;50.70
51815;DHT22;37874;53.158;6.766;2023-05-07T17:06:57;24.50;50.90
51815;DHT22;37874;53.158;6.766;2023-05-07T17:09:22;24.50;51.70
51815;DHT22;37874;53.158;6.766;2023-05-07T17:11:48;24.40;51.20
51815;DHT22;37874;53.158;6.766;2023-05-07T17:14:14;24.50;51.30
51815;DHT22;37874;53.158;6.766;2023-05-07T17:16:39;24.30;51.30
51815;DHT22;37874;53.158;6.766;2023-05-07T17:19:05;24.30;51.50
51815;DHT22;37874;53.158;6.766;2023-05-07T17:21:31;24.30;51.60
51815;DHT22;37874;53.158;6.766;2023-05-07T17:23:56;24.20;51.60
51815;DHT22;37874;53.158;6.766;2023-05-07T17:26:22;24.20;51.70
51815;DHT22;37874;53.158;6.766;2023-05-07T17:28:48;24.20;51.70
51815;DHT22;37874;53.158;6.766;2023-05-07T17:31:13;24.20;51.90
51815;DHT22;37874;53.158;6.766;2023-05-07T17:33:39;24.20;51.90
51815;DHT22;37874;53.158;6.766;2023-05-07T17:36:05;24.10;51.90
51815;DHT22;37874;53.158;6.766;2023-05-07T17:38:33;24.10;52.10